Time;durP1;ratioP1;P1;durP2;ratioP2;P2;SDS_P1;SDS_P2;PMS_P1;PMS_P2;Temp;Humidity;BMP_temperature;BMP_pressure;BME280_temperature;BME280_humidity;BME280_pressure;Samples;Min_cycle;Max_cycle;Signal;HPM_P1;HPM_P2
2022/10/04 00:01:09;;;;;;;3.53;1.23;;;17.90;73.70;;;;;;5092656;28;20109;-74
2022/10/04 00:03:45;;;;;;;5.28;1.15;;;17.80;74.00;;;;;;5091658;28;20412;-74
2022/10/04 00:06:20;;;;;;;2.20;1.20;;;17.80;74.00;;;;;;5092734;28;20500;-74
2022/10/04 00:09:00;;;;;;;4.32;1.52;;;17.80;74.20;;;;;;5092844;28;20030;-74
2022/10/04 00:11:35;;;;;;;1.77;1.10;;;17.70;74.00;;;;;;5093634;28;20089;-73
2022/10/04 00:14:08;;;;;;;3.25;1.08;;;17.70;74.30;;;;;;5097105;28;20028;-74
2022/10/04 00:16:37;;;;;;;5.18;1.33;;;17.70;74.30;;;;;;5096978;28;20020;-73
2022/10/04 00:19:14;;;;;;;2.38;1.33;;;17.60;74.60;;;;;;5096812;28;20099;-74
2022/10/04 00:21:55;;;;;;;2.58;1.30;;;17.60;74.80;;;;;;5096823;28;20031;-74
2022/10/04 00:24:21;;;;;;;3.33;1.35;;;17.60;74.80;;;;;;5096653;28;20020;-73
2022/10/04 00:26:46;;;;;;;3.97;0.98;;;17.60;74.80;;;;;;5096906;28;20031;-74
2022/10/04 00:29:30;;;;;;;2.47;1.17;;;17.60;74.80;;;;;;5095617;28;20377;-73
2022/10/04 00:32:11;;;;;;;4.53;1.25;;;17.60;74.70;;;;;;5096474;28;20036;-74
2022/10/04 00:34:49;;;;;;;2.15;1.23;;;17.50;74.70;;;;;;5095340;28;20031;-74
2022/10/04 00:37:21;;;;;;;5.93;1.30;;;17.50;75.00;;;;;;5096668;28;20095;-73
2022/10/04 00:40:00;;;;;;;4.68;1.40;;;17.50;75.00;;;;;;5096605;28;20032;-74
2022/10/04 00:42:51;;;;;;;4.25;1.20;;;17.40;75.20;;;;;;5096419;28;20032;-73
2022/10/04 00:45:56;;;;;;;1.27;1.00;;;17.40;75.20;;;;;;5096184;28;20482;-74
2022/10/04 00:48:39;;;;;;;4.97;1.27;;;17.40;75.10;;;;;;5094875;28;20381;-73
2022/10/04 00:51:54;;;;;;;5.65;1.15;;;17.40;75.20;;;;;;5096288;28;20062;-74
2022/10/04 00:54:44;;;;;;;6.82;1.13;;;17.40;75.30;;;;;;5079373;28;20043;-73
2022/10/04 00:57:15;;;;;;;3.08;1.20;;;17.40;75.40;;;;;;5094180;28;20035;-74
2022/10/04 00:59:54;;;;;;;4.95;1.13;;;17.30;75.50;;;;;;5092715;28;20381;-73
2022/10/04 01:02:26;;;;;;;4.55;1.20;;;17.30;75.70;;;;;;5093549;28;20040;-74
2022/10/04 01:05:14;;;;;;;7.18;1.00;;;17.30;75.90;;;;;;5094592;28;20060;-73
2022/10/04 01:08:03;;;;;;;2.10;1.17;;;17.30;75.90;;;;;;5095907;28;20472;-73
2022/10/04 01:11:16;;;;;;;3.75;1.77;;;17.20;76.00;;;;;;5096107;28;20107;-73
2022/10/04 01:13:49;;;;;;;1.88;0.95;;;17.20;75.90;;;;;;5083228;28;20036;-73
2022/10/04 01:16:17;;;;;;;;;;;17.10;75.80;;;;;;5096338;28;20355;-74
2022/10/04 01:18:43;;;;;;;4.13;1.30;;;17.10;75.40;;;;;;5095813;28;19954;-74
2022/10/04 01:21:18;;;;;;;6.03;1.38;;;17.20;75.10;;;;;;5095585;28;20527;-74
2022/10/04 01:24:16;;;;;;;2.15;1.00;;;17.10;74.50;;;;;;5095499;28;20575;-75
2022/10/04 01:26:44;;;;;;;1.98;0.93;;;17.10;73.60;;;;;;5094315;28;20069;-73
2022/10/04 01:29:27;;;;;;;2.67;1.00;;;17.10;73.20;;;;;;5095410;28;20023;-74
2022/10/04 01:31:54;;;;;;;2.22;1.10;;;17.20;73.20;;;;;;5094290;28;21041;-74
2022/10/04 01:34:23;;;;;;;8.10;1.10;;;17.20;72.60;;;;;;5095415;28;20104;-74
2022/10/04 01:36:53;;;;;;;3.30;1.20;;;17.10;72.80;;;;;;5095360;28;20024;-74
2022/10/04 01:39:22;;;;;;;4.97;1.20;;;17.10;73.40;;;;;;5095482;28;20032;-74
2022/10/04 01:42:06;;;;;;;7.38;1.00;;;17.20;73.80;;;;;;5095286;28;20019;-74
2022/10/04 01:44:36;;;;;;;6.43;1.35;;;17.20;74.10;;;;;;5095303;28;20386;-74
2022/10/04 01:47:07;;;;;;;3.28;1.23;;;17.20;74.30;;;;;;5095427;28;20024;-74
2022/10/04 01:49:37;;;;;;;3.75;1.20;;;17.20;74.40;;;;;;5093740;28;20466;-74
2022/10/04 01:52:06;;;;;;;3.08;1.27;;;17.20;74.20;;;;;;5095463;28;20032;-74
2022/10/04 01:54:45;;;;;;;2.03;1.00;;;17.20;74.00;;;;;;5095059;28;20028;-74
2022/10/04 01:57:22;;;;;;;3.22;0.95;;;17.10;74.00;;;;;;5095171;28;20031;-74
2022/10/04 02:00:01;;;;;;;1.50;1.00;;;17.20;74.20;;;;;;5094817;28;20024;-75
2022/10/04 02:02:29;;;;;;;2.70;1.23;;;17.10;74.00;;;;;;5093630;28;20024;-74
2022/10/04 02:04:56;;;;;;;2.83;1.25;;;17.10;74.00;;;;;;5094764;28;20058;-74
2022/10/04 02:07:25;;;;;;;2.47;0.90;;;17.10;74.20;;;;;;5094760;28;20020;-74
2022/10/04 02:09:58;;;;;;;4.35;1.10;;;17.10;74.10;;;;;;5094755;28;20475;-74
2022/10/04 02:12:27;;;;;;;4.70;1.20;;;17.10;74.00;;;;;;5094300;28;20028;-74
2022/10/04 02:14:55;;;;;;;1.45;1.00;;;17.10;74.00;;;;;;5094614;28;20028;-74
2022/10/04 02:17:28;;;;;;;4.15;1.00;;;17.10;74.10;;;;;;5094928;28;20024;-74
2022/10/04 02:19:55;;;;;;;4.65;1.10;;;17.10;74.00;;;;;;5094703;28;20024;-74
2022/10/04 02:22:23;;;;;;;4.28;1.20;;;17.10;74.00;;;;;;5094606;28;20085;-74
2022/10/04 02:24:51;;;;;;;7.05;1.25;;;17.10;73.90;;;;;;5094349;28;20073;-73
2022/10/04 02:27:17;;;;;;;1.48;0.73;;;17.00;73.90;;;;;;5094385;28;20486;-73
2022/10/04 02:29:43;;;;;;;3.13;1.20;;;17.00;73.90;;;;;;5093980;28;20049;-74
2022/10/04 02:34:55;;;;;;;3.75;1.58;;;17.00;73.70;;;;;;5093839;28;20125;-74
2022/10/04 02:37:23;;;;;;;2.40;1.15;;;16.90;73.70;;;;;;5094334;28;20020;-74
2022/10/04 02:39:57;;;;;;;5.07;1.20;;;16.90;73.40;;;;;;5094010;28;20055;-73
2022/10/04 02:42:42;;;;;;;6.70;1.20;;;16.90;73.30;;;;;;5094067;28;20099;-74
2022/10/04 02:45:29;;;;;;;3.65;1.40;;;16.90;73.00;;;;;;5094136;28;20055;-74
2022/10/04 02:48:03;;;;;;;2.83;1.20;;;16.90;73.00;;;;;;5094047;28;20063;-74
2022/10/04 02:50:44;;;;;;;3.88;1.00;;;16.90;73.00;;;;;;5094185;28;20028;-73
2022/10/04 02:53:32;;;;;;;6.35;1.17;;;16.90;72.80;;;;;;5093827;28;20108;-73
2022/10/04 02:55:58;;;;;;;5.32;1.17;;;16.90;72.60;;;;;;5092613;28;20032;-74
2022/10/04 02:58:25;;;;;;;2.30;1.20;;;16.90;72.70;;;;;;5093675;28;20474;-74
2022/10/04 03:00:56;;;;;;;3.95;1.10;;;16.90;73.30;;;;;;5093744;28;20056;-73
2022/10/04 03:03:27;;;;;;;2.28;0.90;;;16.80;73.50;;;;;;5093810;28;20423;-74
2022/10/04 03:06:02;;;;;;;5.68;1.20;;;16.80;73.90;;;;;;5093682;28;20465;-73
2022/10/04 03:08:33;;;;;;;3.28;1.20;;;16.80;74.10;;;;;;5093719;28;20421;-74
2022/10/04 03:11:01;;;;;;;4.78;1.10;;;16.80;74.10;;;;;;5093599;28;20453;-74
2022/10/04 03:13:27;;;;;;;2.97;1.00;;;16.80;74.10;;;;;;5093753;28;20024;-74
2022/10/04 03:15:53;;;;;;;2.78;1.25;;;16.80;74.10;;;;;;5093670;28;20047;-74
2022/10/04 03:18:20;;;;;;;4.18;1.30;;;16.80;73.70;;;;;;5093498;28;20049;-73
2022/10/04 03:20:46;;;;;;;2.03;0.95;;;16.80;73.60;;;;;;5093497;28;20032;-73
2022/10/04 03:23:16;;;;;;;4.93;1.10;;;16.80;73.60;;;;;;5093676;28;20363;-74
2022/10/04 03:25:48;;;;;;;6.63;1.70;;;16.80;73.70;;;;;;5093657;28;20035;-74
2022/10/04 03:28:14;;;;;;;2.75;1.20;;;16.80;73.70;;;;;;5093517;28;20020;-73
2022/10/04 03:30:43;;;;;;;5.35;1.33;;;16.80;73.80;;;;;;5093277;28;20388;-74
2022/10/04 03:33:22;;;;;;;4.22;1.10;;;16.80;73.70;;;;;;5093565;28;20031;-73
2022/10/04 03:35:52;;;;;;;3.17;1.48;;;16.80;73.80;;;;;;5093384;28;20085;-74
2022/10/04 03:38:20;;;;;;;2.25;1.13;;;16.80;73.80;;;;;;5092961;28;20393;-74
2022/10/04 03:40:59;;;;;;;1.98;1.10;;;16.80;73.90;;;;;;5093208;28;20544;-73
2022/10/04 03:43:30;;;;;;;4.25;1.00;;;16.80;73.70;;;;;;5093376;28;20032;-74
2022/10/04 03:45:57;;;;;;;8.63;1.10;;;16.70;73.60;;;;;;5092894;28;20032;-74
2022/10/04 03:48:52;;;;;;;6.20;1.15;;;16.70;73.70;;;;;;5092962;28;20258;-74
2022/10/04 03:51:25;;;;;;;6.05;1.10;;;16.70;73.70;;;;;;5091904;28;20397;-74
2022/10/04 03:54:00;;;;;;;3.17;1.40;;;16.70;73.70;;;;;;5093013;28;20058;-74
2022/10/04 03:56:29;;;;;;;3.55;1.23;;;16.70;73.60;;;;;;5093024;28;20043;-74
2022/10/04 03:58:55;;;;;;;3.67;1.10;;;16.70;73.70;;;;;;5093026;28;20028;-73
2022/10/04 04:01:53;;;;;;;5.22;1.10;;;16.70;73.70;;;;;;5092828;28;20101;-74
2022/10/04 04:04:29;;;;;;;2.05;1.13;;;16.70;73.40;;;;;;5081615;28;20036;-73
2022/10/04 04:07:05;;;;;;;4.18;1.00;;;16.70;73.00;;;;;;5091686;28;20055;-73
2022/10/04 04:09:49;;;;;;;2.78;1.23;;;16.70;72.50;;;;;;5092853;28;20016;-73
2022/10/04 04:12:26;;;;;;;3.10;1.20;;;16.70;72.30;;;;;;5092925;28;20043;-74
2022/10/04 04:14:53;;;;;;;3.10;1.23;;;16.80;72.50;;;;;;5091541;28;20073;-73
2022/10/04 04:17:39;;;;;;;4.90;1.05;;;16.80;72.60;;;;;;5092669;28;20386;-73
2022/10/04 04:20:21;;;;;;;3.55;1.13;;;16.80;72.50;;;;;;5093015;28;20099;-73
2022/10/04 04:23:10;;;;;;;4.07;1.07;;;16.80;72.60;;;;;;5092745;28;20497;-74
2022/10/04 04:25:40;;;;;;;1.75;1.05;;;16.70;72.60;;;;;;5092624;28;20032;-73
2022/10/04 04:28:41;;;;;;;4.07;1.15;;;16.70;72.50;;;;;;5092530;28;20032;-74
2022/10/04 04:31:21;;;;;;;2.20;1.00;;;16.70;72.00;;;;;;5092365;28;20539;-74
2022/10/04 04:34:00;;;;;;;6.00;1.17;;;16.70;71.70;;;;;;5092848;28;20073;-73
2022/10/04 04:36:37;;;;;;;2.90;1.02;;;16.80;71.30;;;;;;5092981;28;20099;-73
2022/10/04 04:39:36;;;;;;;4.95;1.20;;;16.70;71.10;;;;;;5092982;28;20028;-73
2022/10/04 04:42:15;;;;;;;5.93;1.10;;;16.80;71.20;;;;;;5092715;28;20073;-73
2022/10/04 04:45:16;;;;;;;4.90;1.05;;;16.70;71.20;;;;;;5092593;28;20034;-73
2022/10/04 04:47:43;;;;;;;3.75;1.00;;;16.70;71.30;;;;;;5090943;28;20115;-74
2022/10/04 04:50:15;;;;;;;5.25;1.25;;;16.70;71.50;;;;;;5091142;28;20723;-73
2022/10/04 04:52:49;;;;;;;4.82;1.20;;;16.70;71.60;;;;;;5092785;28;20020;-74
2022/10/04 04:55:21;;;;;;;3.92;0.90;;;16.70;71.30;;;;;;5092698;28;20023;-74
2022/10/04 04:57:50;;;;;;;4.45;1.02;;;16.70;71.00;;;;;;5092451;28;20513;-74
2022/10/04 05:00:24;;;;;;;2.70;1.13;;;16.70;70.80;;;;;;5096176;28;20052;-74
2022/10/04 05:02:56;;;;;;;5.03;1.20;;;16.70;70.60;;;;;;5096344;28;21014;-74
2022/10/04 05:05:25;;;;;;;4.88;1.13;;;16.70;70.80;;;;;;5096061;28;20032;-74
2022/10/04 05:08:26;;;;;;;2.50;1.00;;;16.70;71.00;;;;;;5095881;28;20020;-74
2022/10/04 05:11:07;;;;;;;6.35;1.33;;;16.70;71.10;;;;;;5095630;28;20151;-74
2022/10/04 05:14:13;;;;;;;2.95;1.02;;;16.70;70.70;;;;;;5095658;28;20058;-77
2022/10/04 05:16:49;;;;;;;7.82;1.10;;;16.70;70.60;;;;;;5073150;28;20032;-77
2022/10/04 05:19:23;;;;;;;6.28;1.10;;;16.70;70.60;;;;;;5093151;28;20127;-74
2022/10/04 05:21:52;;;;;;;4.53;1.08;;;16.70;70.70;;;;;;5095570;28;20019;-76
2022/10/04 05:24:20;;;;;;;4.68;1.30;;;16.70;71.10;;;;;;5095731;28;20038;-77
2022/10/04 05:26:53;;;;;;;5.05;1.40;;;16.70;71.40;;;;;;5095448;28;20024;-74
2022/10/04 05:29:23;;;;;;;4.28;1.60;;;16.70;71.90;;;;;;5095439;28;20095;-75
2022/10/04 05:32:13;;;;;;;6.65;1.88;;;16.70;72.20;;;;;;5095464;28;20085;-74
2022/10/04 05:34:40;;;;;;;8.52;1.35;;;16.70;72.30;;;;;;5095445;28;20099;-78
2022/10/04 05:37:19;;;;;;;3.97;1.30;;;16.70;72.60;;;;;;5095345;28;20478;-77
2022/10/04 05:40:14;;;;;;;4.82;1.30;;;16.70;72.50;;;;;;5095527;28;20027;-76
2022/10/04 05:42:46;;;;;;;5.15;1.45;;;16.60;72.10;;;;;;5095202;28;20053;-74
2022/10/04 05:45:29;;;;;;;4.43;1.27;;;16.60;72.30;;;;;;5095453;28;20028;-78
2022/10/04 05:47:57;;;;;;;3.25;1.48;;;16.60;72.30;;;;;;5095370;28;20509;-74
2022/10/04 05:50:42;;;;;;;5.85;1.20;;;16.60;72.30;;;;;;5095213;28;20591;-74
2022/10/04 05:53:30;;;;;;;4.45;1.25;;;16.60;72.10;;;;;;5095033;28;20061;-74
2022/10/04 05:56:10;;;;;;;4.90;1.15;;;16.60;72.10;;;;;;5095091;28;20023;-74
2022/10/04 05:59:15;;;;;;;3.47;1.55;;;16.60;72.50;;;;;;5094731;28;20486;-74
2022/10/04 06:02:20;;;;;;;3.38;1.25;;;16.60;72.70;;;;;;5093938;28;20044;-74
2022/10/04 06:05:11;;;;;;;3.47;1.10;;;16.60;72.50;;;;;;5093269;28;20423;-74
2022/10/04 06:07:54;;;;;;;5.85;1.30;;;16.60;71.90;;;;;;5094636;28;20036;-74
2022/10/04 06:10:51;;;;;;;4.53;1.27;;;16.60;71.80;;;;;;5094615;28;20028;-77
2022/10/04 06:13:55;;;;;;;5.45;1.10;;;16.70;71.70;;;;;;5089305;28;20043;-74
2022/10/04 06:16:48;;;;;;;3.30;1.10;;;16.70;71.80;;;;;;5072761;28;20036;-73
2022/10/04 06:19:52;;;;;;;5.10;1.40;;;16.80;72.30;;;;;;5073852;28;20382;-73
2022/10/04 06:22:18;;;;;;;5.50;1.45;;;16.70;72.50;;;;;;5051618;28;20024;-74
2022/10/04 06:25:02;;;;;;;3.25;1.20;;;16.80;72.90;;;;;;5069696;28;20040;-78
2022/10/04 06:27:36;;;;;;;8.65;2.30;;;16.80;73.00;;;;;;5073795;28;20047;-73
2022/10/04 06:30:05;;;;;;;5.90;1.58;;;16.80;73.00;;;;;;5073756;28;20024;-79
2022/10/04 06:32:59;;;;;;;5.88;1.40;;;16.80;73.00;;;;;;5072024;28;20077;-74
2022/10/04 06:35:40;;;;;;;6.35;1.50;;;16.80;72.80;;;;;;5071874;28;20040;-76
2022/10/04 06:38:35;;;;;;;4.75;1.10;;;16.80;72.90;;;;;;5072839;28;20470;-75
2022/10/04 06:41:24;;;;;;;3.08;1.10;;;16.80;72.90;;;;;;5073045;28;20082;-77
2022/10/04 06:44:01;;;;;;;5.65;1.48;;;16.80;72.70;;;;;;5073291;28;20020;-77
2022/10/04 06:46:45;;;;;;;2.63;1.10;;;16.80;72.90;;;;;;5073573;28;20017;-77
2022/10/04 06:49:30;;;;;;;3.20;1.50;;;16.90;72.80;;;;;;5073540;28;20020;-76
2022/10/04 06:52:24;;;;;;;3.78;1.55;;;16.90;72.70;;;;;;5073533;28;20036;-76
2022/10/04 06:55:09;;;;;;;6.05;1.30;;;16.90;72.90;;;;;;5073220;28;20029;-73
2022/10/04 06:57:58;;;;;;;4.28;1.35;;;16.90;73.20;;;;;;5073542;28;20053;-76
2022/10/04 07:00:26;;;;;;;5.00;1.40;;;17.00;73.40;;;;;;5072078;28;20132;-75
2022/10/04 07:03:11;;;;;;;4.18;1.70;;;17.00;73.50;;;;;;5073129;28;20036;-73
2022/10/04 07:05:49;;;;;;;8.27;1.77;;;17.10;73.70;;;;;;5073059;28;20020;-76
2022/10/04 07:08:29;;;;;;;4.95;1.40;;;17.10;73.70;;;;;;5072000;28;20021;-73
2022/10/04 07:11:12;;;;;;;2.80;1.25;;;17.20;73.60;;;;;;5072568;28;20040;-74
2022/10/04 07:13:52;;;;;;;;;;;17.20;73.40;;;;;;5072986;28;20052;-74
2022/10/04 07:16:50;;;;;;;2.90;1.33;;;17.20;73.10;;;;;;5072686;28;19905;-74
2022/10/04 07:19:18;;;;;;;4.13;1.20;;;17.20;72.50;;;;;;5071704;28;20025;-73
2022/10/04 07:22:19;;;;;;;5.65;1.13;;;17.30;72.20;;;;;;5072471;28;20425;-74
2022/10/04 07:25:03;;;;;;;3.40;1.30;;;17.30;72.10;;;;;;5051692;28;20112;-73
2022/10/04 07:30:47;;;;;;;3.80;1.65;;;17.30;73.10;;;;;;5091682;28;20404;-74
2022/10/04 07:33:20;;;;;;;5.70;1.88;;;17.40;73.40;;;;;;5093424;28;20024;-74
2022/10/04 07:35:51;;;;;;;3.90;1.23;;;17.40;73.10;;;;;;5092947;28;20027;-73
2022/10/04 07:38:27;;;;;;;2.83;1.50;;;17.40;72.80;;;;;;5091688;28;20127;-74
2022/10/04 07:41:17;;;;;;;5.28;1.73;;;17.50;72.60;;;;;;5093158;28;20028;-74
2022/10/04 07:43:50;;;;;;;7.63;1.80;;;17.50;72.50;;;;;;5092667;28;20024;-73
2022/10/04 07:46:39;;;;;;;3.72;1.63;;;17.50;72.60;;;;;;5092237;28;20030;-74
2022/10/04 07:49:15;;;;;;;4.18;1.85;;;17.50;72.80;;;;;;5090877;28;20062;-73
2022/10/04 07:51:56;;;;;;;2.97;1.50;;;17.60;72.90;;;;;;5092158;28;20039;-74
2022/10/04 07:54:34;;;;;;;3.92;1.33;;;17.60;73.10;;;;;;5091768;28;20032;-73
2022/10/04 07:57:10;;;;;;;5.97;1.48;;;17.60;73.20;;;;;;5091555;28;20024;-73
2022/10/04 08:00:04;;;;;;;3.10;1.20;;;17.60;73.50;;;;;;5092709;28;20032;-73
2022/10/04 08:02:53;;;;;;;3.22;1.13;;;17.60;72.70;;;;;;5092938;28;20125;-72
2022/10/04 08:05:35;;;;;;;4.20;1.10;;;17.60;72.30;;;;;;5093015;28;20044;-71
2022/10/04 08:08:21;;;;;;;5.50;1.40;;;17.50;72.40;;;;;;5092963;28;20028;-72
2022/10/04 08:11:13;;;;;;;3.53;1.20;;;17.60;72.50;;;;;;5092911;28;20067;-72
2022/10/04 08:14:14;;;;;;;6.32;2.00;;;17.60;72.30;;;;;;5092719;28;20054;-72
2022/10/04 08:16:58;;;;;;;4.85;1.40;;;17.70;72.50;;;;;;5072711;28;20062;-72
2022/10/04 08:19:36;;;;;;;10.27;1.30;;;17.80;72.50;;;;;;5092647;28;20024;-72
2022/10/04 08:22:33;;;;;;;5.18;1.15;;;17.90;72.50;;;;;;5092821;28;20028;-72
2022/10/04 08:25:28;;;;;;;5.28;1.17;;;18.00;72.30;;;;;;5092750;28;20028;-72
2022/10/04 08:31:04;;;;;;;9.55;1.25;;;18.20;70.80;;;;;;5092415;28;20145;-72
2022/10/04 08:34:06;;;;;;;6.97;1.75;;;18.30;70.10;;;;;;5095073;28;20028;-72
2022/10/04 08:36:48;;;;;;;7.50;1.02;;;18.30;69.60;;;;;;5096599;28;20024;-72
2022/10/04 08:39:29;;;;;;;5.05;1.40;;;18.40;69.20;;;;;;5095410;28;20388;-72
2022/10/04 08:42:35;;;;;;;5.13;1.40;;;18.40;69.40;;;;;;5096644;28;20024;-72
2022/10/04 08:45:07;;;;;;;4.25;1.08;;;18.40;69.50;;;;;;5096637;28;20462;-71
2022/10/04 08:47:55;;;;;;;5.13;1.13;;;18.50;69.10;;;;;;5096380;28;20091;-72
2022/10/04 08:50:39;;;;;;;2.47;1.00;;;18.50;68.80;;;;;;5094518;28;20301;-72
2022/10/04 08:53:52;;;;;;;3.30;1.20;;;18.50;68.50;;;;;;5096037;28;20024;-72
2022/10/04 08:56:36;;;;;;;;;;;18.50;68.60;;;;;;5096671;28;20035;-71
2022/10/04 08:59:22;;;;;;;4.72;1.10;;;18.50;68.90;;;;;;5096134;28;20270;-72
2022/10/04 09:01:56;;;;;;;5.03;1.20;;;18.60;69.10;;;;;;5094156;28;20047;-72
2022/10/04 09:04:54;;;;;;;1.90;1.15;;;18.60;69.40;;;;;;5096164;28;20020;-71
2022/10/04 09:07:49;;;;;;;3.13;1.15;;;18.60;69.90;;;;;;5096430;28;20101;-72
2022/10/04 09:10:29;;;;;;;2.90;1.27;;;18.60;69.80;;;;;;5095998;28;20040;-72
2022/10/04 09:13:17;;;;;;;3.67;1.13;;;18.60;69.60;;;;;;5094135;28;20381;-72
2022/10/04 09:15:50;;;;;;;8.43;1.52;;;18.60;69.90;;;;;;5095908;28;20025;-72
2022/10/04 09:18:21;;;;;;;8.82;2.75;;;18.70;70.30;;;;;;5095901;28;20378;-72
2022/10/04 09:20:46;;;;;;;3.47;1.52;;;18.70;71.70;;;;;;5095829;28;20024;-72
2022/10/04 09:23:36;;;;;;;5.45;1.20;;;18.80;70.80;;;;;;5095633;28;20027;-72
2022/10/04 09:26:11;;;;;;;3.72;1.30;;;18.90;70.30;;;;;;5094513;28;20036;-72
2022/10/04 09:29:07;;;;;;;7.10;1.58;;;19.00;70.50;;;;;;5095680;28;20020;-71
2022/10/04 09:32:18;;;;;;;2.67;1.20;;;19.00;70.70;;;;;;5095333;28;20082;-72
2022/10/04 09:34:58;;;;;;;3.67;1.10;;;19.00;70.90;;;;;;5093314;28;20036;-72
2022/10/04 09:37:43;;;;;;;4.05;1.50;;;19.10;70.70;;;;;;5095623;28;20466;-72
2022/10/04 09:40:42;;;;;;;3.25;1.02;;;19.10;70.60;;;;;;5093725;28;20032;-72
2022/10/04 09:43:42;;;;;;;2.70;1.20;;;19.10;70.60;;;;;;5094359;28;20051;-72
2022/10/04 09:46:37;;;;;;;3.80;1.38;;;19.20;70.70;;;;;;5094603;28;20097;-72
2022/10/04 09:49:26;;;;;;;9.13;1.48;;;19.30;70.40;;;;;;5092653;28;20115;-70
2022/10/04 09:52:28;;;;;;;3.35;1.38;;;19.40;70.20;;;;;;5093123;28;20499;-72
2022/10/04 09:55:12;;;;;;;2.95;1.05;;;19.40;70.20;;;;;;5094880;28;20024;-72
2022/10/04 09:58:02;;;;;;;5.60;1.13;;;19.40;69.90;;;;;;5095070;28;20020;-72
2022/10/04 10:00:34;;;;;;;2.95;1.25;;;19.50;69.80;;;;;;5094981;28;20036;-72
2022/10/04 10:03:20;;;;;;;7.53;1.38;;;19.50;69.80;;;;;;5094948;28;20020;-72
2022/10/04 10:05:52;;;;;;;8.60;1.55;;;19.60;69.90;;;;;;5094861;28;20420;-72
2022/10/04 10:08:20;;;;;;;6.05;1.42;;;19.70;70.00;;;;;;5094918;28;20028;-72
2022/10/04 10:14:16;;;;;;;7.97;1.63;;;19.80;70.60;;;;;;5094818;28;20102;-72
2022/10/04 10:16:52;;;;;;;7.38;1.20;;;19.90;70.00;;;;;;5093348;28;20126;-72
2022/10/04 10:19:20;;;;;;;6.57;1.63;;;19.90;69.60;;;;;;5094897;28;20020;-71
2022/10/04 10:21:54;;;;;;;2.45;1.10;;;20.00;69.00;;;;;;5093322;28;20032;-71
2022/10/04 10:24:42;;;;;;;3.08;1.10;;;20.10;69.00;;;;;;5094549;28;20024;-72
2022/10/04 10:27:32;;;;;;;4.60;1.27;;;20.10;69.00;;;;;;5094530;28;20106;-70
2022/10/04 10:30:18;;;;;;;4.05;1.35;;;20.20;69.10;;;;;;5094275;28;20031;-70
2022/10/04 10:33:21;;;;;;;11.18;1.60;;;20.30;68.50;;;;;;5094251;28;20496;-70
2022/10/04 10:36:35;;;;;;;4.85;1.50;;;20.40;68.00;;;;;;5094301;28;20066;-69
2022/10/04 10:39:45;;;;;;;2.88;1.23;;;20.50;68.50;;;;;;5076959;28;20024;-71
2022/10/04 10:42:26;;;;;;;2.63;1.20;;;20.60;68.30;;;;;;5094069;28;20504;-70
2022/10/04 10:45:17;;;;;;;4.78;1.20;;;20.60;68.70;;;;;;5094042;28;20024;-69
2022/10/04 10:47:58;;;;;;;4.68;1.17;;;20.60;69.10;;;;;;5094071;28;20029;-69
2022/10/04 10:51:09;;;;;;;3.22;1.10;;;20.60;69.10;;;;;;5093880;28;20103;-72
2022/10/04 10:54:08;;;;;;;3.75;1.08;;;20.70;69.50;;;;;;5071260;28;20029;-72
2022/10/04 10:57:27;;;;;;;6.30;1.13;;;20.60;69.30;;;;;;5069547;28;20028;-72
2022/10/04 11:00:11;;;;;;;2.10;1.17;;;20.60;69.20;;;;;;5070076;28;20052;-72
2022/10/04 11:03:04;;;;;;;2.22;1.40;;;20.70;69.30;;;;;;5071061;28;20036;-72
2022/10/04 11:05:38;;;;;;;8.48;1.30;;;20.70;69.40;;;;;;5088626;28;20032;-72
2022/10/04 11:08:08;;;;;;;3.58;1.10;;;20.80;69.00;;;;;;5093474;28;20024;-72
2022/10/04 11:11:02;;;;;;;5.68;0.93;;;20.80;69.20;;;;;;5093685;28;20016;-71
2022/10/04 11:14:01;;;;;;;5.38;1.10;;;20.90;69.10;;;;;;5092582;28;20039;-72
2022/10/04 11:16:48;;;;;;;3.92;1.17;;;21.00;69.20;;;;;;5093699;28;20549;-71
2022/10/04 11:19:37;;;;;;;6.30;1.38;;;21.10;69.30;;;;;;5093736;28;20020;-71
2022/10/04 11:22:06;;;;;;;6.57;1.30;;;21.10;69.80;;;;;;5093538;28;20062;-71
2022/10/04 11:24:54;;;;;;;3.45;1.20;;;21.10;69.30;;;;;;5093513;28;20032;-72
2022/10/04 11:27:51;;;;;;;3.28;1.13;;;21.10;69.50;;;;;;5093186;28;20047;-72
2022/10/04 11:30:28;;;;;;;1.95;1.08;;;21.10;69.60;;;;;;5090416;28;20036;-71
2022/10/04 11:33:27;;;;;;;4.10;1.30;;;21.20;69.90;;;;;;5090705;28;20078;-71
2022/10/04 11:36:26;;;;;;;4.68;1.52;;;21.20;69.80;;;;;;5080773;28;20493;-71
2022/10/04 11:39:01;;;;;;;6.90;1.30;;;21.30;69.50;;;;;;5093056;28;20024;-72
2022/10/04 11:42:24;;;;;;;3.72;1.45;;;21.40;69.30;;;;;;5093072;28;20103;-71
2022/10/04 11:45:41;;;;;;;4.45;1.45;;;21.40;68.40;;;;;;5080835;28;20565;-71
2022/10/04 11:48:52;;;;;;;5.05;1.40;;;21.30;68.20;;;;;;5091667;28;20060;-71
2022/10/04 11:51:46;;;;;;;4.32;1.40;;;21.20;69.00;;;;;;5089981;28;20036;-71
2022/10/04 11:54:46;;;;;;;6.07;1.30;;;21.20;69.30;;;;;;5088973;28;20032;-71
2022/10/04 11:57:34;;;;;;;5.97;1.77;;;21.20;69.00;;;;;;5090459;28;20016;-72
2022/10/04 12:00:03;;;;;;;3.17;1.10;;;21.10;69.60;;;;;;5091055;28;20035;-70
2022/10/04 12:02:32;;;;;;;4.13;1.30;;;21.10;70.10;;;;;;5092787;28;20051;-72
2022/10/04 12:05:18;;;;;;;5.30;1.27;;;21.10;70.30;;;;;;5092682;28;20386;-72
2022/10/04 12:07:55;;;;;;;6.10;1.52;;;21.00;70.20;;;;;;5095670;28;20116;-72
2022/10/04 12:10:32;;;;;;;8.13;2.20;;;21.00;69.80;;;;;;5096914;28;20028;-72
2022/10/04 12:13:19;;;;;;;5.43;1.50;;;21.00;70.50;;;;;;5096756;28;20024;-71
2022/10/04 12:16:14;;;;;;;5.35;1.30;;;21.00;71.00;;;;;;5096636;28;20024;-71
2022/10/04 12:19:02;;;;;;;6.38;1.15;;;20.90;71.20;;;;;;5090686;28;20036;-72
2022/10/04 12:21:40;;;;;;;3.03;1.15;;;20.90;70.40;;;;;;5095306;28;20050;-72
2022/10/04 12:24:23;;;;;;;6.63;1.20;;;20.90;70.50;;;;;;5096207;28;20544;-71
2022/10/04 13:05:07;;;;;;;8.40;1.10;;;20.30;72.40;;;;;;5069743;28;20448;-72
2022/10/04 13:08:02;;;;;;;9.77;1.48;;;20.50;75.10;;;;;;5070206;28;20497;-72
2022/10/04 13:10:49;;;;;;;3.33;1.05;;;20.50;74.50;;;;;;5070014;28;20020;-72
2022/10/04 13:13:32;;;;;;;3.63;1.00;;;20.50;74.70;;;;;;5069732;28;20032;-72
2022/10/04 13:16:14;;;;;;;8.23;1.67;;;20.50;75.10;;;;;;5069877;28;20032;-72
2022/10/04 13:18:51;;;;;;;12.85;1.38;;;20.50;75.00;;;;;;5069720;28;20504;-72
2022/10/04 13:21:39;;;;;;;7.35;1.25;;;20.50;75.10;;;;;;5069296;28;20112;-72
2022/10/04 13:24:53;;;;;;;4.82;1.10;;;20.50;75.40;;;;;;5066553;28;20047;-72
2022/10/04 13:27:40;;;;;;;5.60;1.30;;;20.50;75.30;;;;;;5069220;28;20024;-72
2022/10/04 13:30:23;;;;;;;4.85;1.70;;;20.50;74.80;;;;;;5069401;28;20029;-72
2022/10/04 13:32:48;;;;;;;;;;;20.50;74.90;;;;;;5069790;28;20024;-72
2022/10/04 13:35:24;;;;;;;6.28;1.23;;;20.50;75.10;;;;;;5068208;28;20016;-72
2022/10/04 13:38:13;;;;;;;2.78;1.02;;;20.50;75.30;;;;;;5067533;28;20031;-71
2022/10/04 13:41:11;;;;;;;2.38;1.00;;;20.50;75.40;;;;;;5068443;28;20024;-71
2022/10/04 13:44:02;;;;;;;4.05;1.55;;;20.50;75.20;;;;;;5049539;28;20037;-71
2022/10/04 13:46:43;;;;;;;5.35;1.20;;;20.50;75.30;;;;;;5066725;28;20068;-71
2022/10/04 13:49:30;;;;;;;3.10;1.20;;;20.50;75.40;;;;;;5068325;28;20029;-72
2022/10/04 13:58:23;;;;;;;5.05;1.40;;;20.60;75.10;;;;;;5048991;28;20080;-69
2022/10/04 14:01:26;;;;;;;5.65;1.38;;;20.60;75.80;;;;;;5048851;28;20105;-69
2022/10/04 14:04:26;;;;;;;4.93;1.20;;;20.60;75.80;;;;;;5045273;28;20136;-70
2022/10/04 14:07:21;;;;;;;4.55;1.25;;;20.70;76.30;;;;;;5035363;28;20407;-71
2022/10/04 14:09:59;;;;;;;4.63;1.25;;;20.70;76.40;;;;;;5025166;28;20033;-71
2022/10/04 14:12:52;;;;;;;5.50;1.70;;;20.70;76.10;;;;;;5034957;28;20093;-70
2022/10/04 14:15:43;;;;;;;6.95;1.65;;;20.70;75.40;;;;;;5035312;28;20109;-71
2022/10/04 14:18:24;;;;;;;8.40;1.38;;;20.70;75.10;;;;;;5034901;28;20103;-71
2022/10/04 14:20:58;;;;;;;6.30;1.05;;;20.70;75.10;;;;;;5033899;28;20028;-71
2022/10/04 14:23:52;;;;;;;10.05;1.30;;;20.70;75.30;;;;;;5035232;28;20104;-71
2022/10/04 14:26:30;;;;;;;8.85;1.30;;;20.70;75.30;;;;;;5032952;28;20044;-70
2022/10/04 14:29:06;;;;;;;4.03;1.20;;;20.70;75.10;;;;;;5035205;28;20025;-72
2022/10/04 14:32:01;;;;;;;4.97;1.20;;;20.70;74.80;;;;;;5035371;28;20129;-70
2022/10/04 14:34:52;;;;;;;5.07;1.52;;;20.70;75.00;;;;;;5034874;28;20472;-71
2022/10/04 14:37:36;;;;;;;5.72;1.30;;;20.70;74.80;;;;;;5034834;28;20144;-70
2022/10/04 14:40:14;;;;;;;11.93;1.63;;;20.70;75.00;;;;;;5035275;28;20025;-70
2022/10/04 14:43:09;;;;;;;13.38;1.73;;;20.70;74.90;;;;;;5034742;28;20029;-70
2022/10/04 14:45:58;;;;;;;6.30;1.50;;;20.70;75.40;;;;;;5024461;28;20115;-70
2022/10/04 14:48:48;;;;;;;6.63;1.40;;;20.70;75.60;;;;;;5034851;28;20375;-70
2022/10/04 14:51:20;;;;;;;5.10;1.30;;;20.70;75.70;;;;;;5033523;28;20033;-69
2022/10/04 14:54:17;;;;;;;10.98;1.60;;;20.70;75.50;;;;;;5034899;28;20056;-69
2022/10/04 14:57:02;;;;;;;4.75;1.77;;;20.70;75.90;;;;;;5034772;28;20022;-69
2022/10/04 14:59:52;;;;;;;7.22;1.67;;;20.80;75.70;;;;;;5034425;28;20056;-69
2022/10/04 15:02:30;;;;;;;6.85;1.27;;;20.80;76.20;;;;;;5034527;28;20040;-69